Accueil
METAR-TAF:

METAR-TAF

Aéroports :

Hanoï, Viêtnam

Aéroport international de Nội Bài

latitude: 21-01N, longitude: 105-48E, altitude: 6 m

Observation

Le bulletin a été fait il y a 37 minutes, à 23:30 UTC
Vent 7 kt de nord, variant entre nord/nord-ouest et nord-est
Température 18°C
Humidité 56%
Pression 1021 hPa
Visibilité 10 km ou plus
pas de nuages en-dessous de 1500 mètres et pas de cumulonimbus.

METAR: VVNB 222330Z 01007KT 340V040 CAVOK 18/09 Q1021 NOSIG

Heure: 07:07 (00:07 UTC)

Prévision

Le bulletin a été fait il y a 1 heure et 7 minutes, à 23:00 UTC
Prévision valable du 23 à 00 UTC au 23 à 24 UTC
Vent 8 kt de nord/nord-est
Visibilité 10 km ou plus
Nuages épars à une hauteur de 2000 ft
Nuages fragmentés à une hauteur de 5000 ft

TAF: VVNB 222300Z 2300/2324 02008KT 9999 SCT020 BKN050

Observations et prévisions météorologiques de plus de 4000 aéroports (messages METAR et TAF).

Les stations disponibles sont représentées par des disques jaunes et rouges sur la carte.

Passer la souris dessus pour voir le nom de la station.

Cliquer dessus pour voir les observations et prévisions météorologiques.

Pour changer de carte: cliquez sur les boutons verts avec une croix noire pour zoomer, sur le bouton vert avec un tiret pour effectuer un zoom arrière, ou sur les flèches vertes pour les cartes adjacentes.


METAR-TAF: